sensor_id;sensor_type;location;lat;lon;timestamp;P1;durP1;ratioP1;P2;durP2;ratioP2
12665;SDS011;58531;59.050;17.416;2023-10-31T00:00:04;14.97;;;7.03;;
12665;SDS011;58531;59.050;17.416;2023-10-31T00:02:37;13.27;;;6.67;;
12665;SDS011;58531;59.050;17.416;2023-10-31T00:05:05;14.53;;;5.93;;
12665;SDS011;58531;59.050;17.416;2023-10-31T00:07:32;14.23;;;6.50;;
12665;SDS011;58531;59.050;17.416;2023-10-31T00:09:59;8.40;;;5.93;;
12665;SDS011;58531;59.050;17.416;2023-10-31T00:12:26;12.57;;;5.80;;
12665;SDS011;58531;59.050;17.416;2023-10-31T00:14:53;13.43;;;6.53;;
12665;SDS011;58531;59.050;17.416;2023-10-31T00:17:20;14.03;;;5.73;;
12665;SDS011;58531;59.050;17.416;2023-10-31T00:19:46;15.83;;;5.23;;
12665;SDS011;58531;59.050;17.416;2023-10-31T00:22:15;16.30;;;5.40;;
12665;SDS011;58531;59.050;17.416;2023-10-31T00:24:42;11.30;;;5.53;;
12665;SDS011;58531;59.050;17.416;2023-10-31T00:27:09;13.43;;;5.57;;
12665;SDS011;58531;59.050;17.416;2023-10-31T00:29:36;10.50;;;5.13;;
12665;SDS011;58531;59.050;17.416;2023-10-31T00:32:03;11.00;;;5.40;;
12665;SDS011;58531;59.050;17.416;2023-10-31T00:34:30;14.13;;;5.13;;
12665;SDS011;58531;59.050;17.416;2023-10-31T00:36:57;8.30;;;5.30;;
12665;SDS011;58531;59.050;17.416;2023-10-31T00:39:25;14.07;;;5.53;;
12665;SDS011;58531;59.050;17.416;2023-10-31T00:41:52;9.47;;;5.80;;
12665;SDS011;58531;59.050;17.416;2023-10-31T00:44:19;11.37;;;5.40;;
12665;SDS011;58531;59.050;17.416;2023-10-31T00:46:46;16.17;;;5.13;;
12665;SDS011;58531;59.050;17.416;2023-10-31T00:49:12;8.30;;;5.30;;
12665;SDS011;58531;59.050;17.416;2023-10-31T00:51:39;13.00;;;5.63;;
12665;SDS011;58531;59.050;17.416;2023-10-31T00:54:06;8.57;;;5.33;;
12665;SDS011;58531;59.050;17.416;2023-10-31T00:56:34;11.90;;;5.37;;
12665;SDS011;58531;59.050;17.416;2023-10-31T00:59:01;10.60;;;5.03;;
12665;SDS011;58531;59.050;17.416;2023-10-31T01:01:28;17.23;;;5.40;;
12665;SDS011;58531;59.050;17.416;2023-10-31T01:03:55;11.50;;;4.50;;
12665;SDS011;58531;59.050;17.416;2023-10-31T01:06:21;8.47;;;5.37;;
12665;SDS011;58531;59.050;17.416;2023-10-31T01:08:48;9.93;;;5.47;;
12665;SDS011;58531;59.050;17.416;2023-10-31T01:11:15;12.70;;;5.47;;
12665;SDS011;58531;59.050;17.416;2023-10-31T01:13:43;9.93;;;4.77;;
12665;SDS011;58531;59.050;17.416;2023-10-31T01:16:10;11.97;;;5.37;;
12665;SDS011;58531;59.050;17.416;2023-10-31T01:18:38;12.37;;;4.97;;
12665;SDS011;58531;59.050;17.416;2023-10-31T01:21:05;9.73;;;4.90;;
12665;SDS011;58531;59.050;17.416;2023-10-31T01:23:34;11.07;;;5.03;;
12665;SDS011;58531;59.050;17.416;2023-10-31T01:26:01;10.03;;;4.73;;
12665;SDS011;58531;59.050;17.416;2023-10-31T01:28:28;11.57;;;5.47;;
12665;SDS011;58531;59.050;17.416;2023-10-31T01:30:56;9.17;;;4.90;;
12665;SDS011;58531;59.050;17.416;2023-10-31T01:33:23;13.83;;;5.57;;
12665;SDS011;58531;59.050;17.416;2023-10-31T01:35:50;10.07;;;5.57;;
12665;SDS011;58531;59.050;17.416;2023-10-31T01:38:17;14.20;;;5.23;;
12665;SDS011;58531;59.050;17.416;2023-10-31T01:40:43;13.63;;;5.63;;
12665;SDS011;58531;59.050;17.416;2023-10-31T01:43:10;13.43;;;5.67;;
12665;SDS011;58531;59.050;17.416;2023-10-31T01:45:37;11.67;;;5.10;;
12665;SDS011;58531;59.050;17.416;2023-10-31T01:48:05;10.50;;;5.47;;
12665;SDS011;58531;59.050;17.416;2023-10-31T01:50:32;11.23;;;4.90;;
12665;SDS011;58531;59.050;17.416;2023-10-31T01:52:59;15.23;;;5.43;;
12665;SDS011;58531;59.050;17.416;2023-10-31T01:55:26;9.83;;;4.90;;
12665;SDS011;58531;59.050;17.416;2023-10-31T01:57:54;13.00;;;5.40;;
12665;SDS011;58531;59.050;17.416;2023-10-31T02:00:21;9.23;;;5.60;;
12665;SDS011;58531;59.050;17.416;2023-10-31T02:02:48;9.47;;;5.23;;
12665;SDS011;58531;59.050;17.416;2023-10-31T02:05:20;13.20;;;5.20;;
12665;SDS011;58531;59.050;17.416;2023-10-31T02:07:47;10.43;;;5.60;;
12665;SDS011;58531;59.050;17.416;2023-10-31T02:10:14;14.60;;;5.47;;
12665;SDS011;58531;59.050;17.416;2023-10-31T02:12:41;14.63;;;5.73;;
12665;SDS011;58531;59.050;17.416;2023-10-31T02:15:08;12.07;;;5.47;;
12665;SDS011;58531;59.050;17.416;2023-10-31T02:17:36;9.97;;;5.53;;
12665;SDS011;58531;59.050;17.416;2023-10-31T02:20:03;14.60;;;5.60;;
12665;SDS011;58531;59.050;17.416;2023-10-31T02:22:32;17.10;;;5.87;;
12665;SDS011;58531;59.050;17.416;2023-10-31T02:24:59;11.50;;;5.70;;
12665;SDS011;58531;59.050;17.416;2023-10-31T02:27:26;11.30;;;6.00;;
12665;SDS011;58531;59.050;17.416;2023-10-31T02:29:53;14.27;;;5.70;;
12665;SDS011;58531;59.050;17.416;2023-10-31T02:32:20;13.40;;;5.73;;
12665;SDS011;58531;59.050;17.416;2023-10-31T02:34:47;12.77;;;5.57;;
12665;SDS011;58531;59.050;17.416;2023-10-31T02:37:15;11.03;;;6.63;;
12665;SDS011;58531;59.050;17.416;2023-10-31T02:39:44;12.43;;;6.30;;
12665;SDS011;58531;59.050;17.416;2023-10-31T02:42:11;12.20;;;6.60;;
12665;SDS011;58531;59.050;17.416;2023-10-31T02:44:38;15.03;;;5.77;;
12665;SDS011;58531;59.050;17.416;2023-10-31T02:47:04;9.13;;;5.87;;
12665;SDS011;58531;59.050;17.416;2023-10-31T02:49:31;14.43;;;6.63;;
12665;SDS011;58531;59.050;17.416;2023-10-31T02:51:58;11.80;;;5.40;;
12665;SDS011;58531;59.050;17.416;2023-10-31T02:54:25;15.77;;;6.37;;
12665;SDS011;58531;59.050;17.416;2023-10-31T02:56:53;13.07;;;6.17;;
12665;SDS011;58531;59.050;17.416;2023-10-31T02:59:20;13.10;;;6.33;;
12665;SDS011;58531;59.050;17.416;2023-10-31T03:01:47;10.80;;;5.93;;
12665;SDS011;58531;59.050;17.416;2023-10-31T03:04:13;13.03;;;6.20;;
12665;SDS011;58531;59.050;17.416;2023-10-31T03:06:41;19.10;;;7.03;;
12665;SDS011;58531;59.050;17.416;2023-10-31T03:09:08;14.53;;;6.73;;
12665;SDS011;58531;59.050;17.416;2023-10-31T03:11:35;12.43;;;6.77;;
12665;SDS011;58531;59.050;17.416;2023-10-31T03:14:03;13.00;;;6.70;;
12665;SDS011;58531;59.050;17.416;2023-10-31T03:16:30;18.67;;;6.43;;
12665;SDS011;58531;59.050;17.416;2023-10-31T03:18:57;14.50;;;6.43;;
12665;SDS011;58531;59.050;17.416;2023-10-31T03:21:25;18.27;;;7.17;;
12665;SDS011;58531;59.050;17.416;2023-10-31T03:23:51;16.57;;;6.90;;
12665;SDS011;58531;59.050;17.416;2023-10-31T03:26:20;16.53;;;6.93;;
12665;SDS011;58531;59.050;17.416;2023-10-31T03:28:48;13.80;;;6.93;;
12665;SDS011;58531;59.050;17.416;2023-10-31T03:31:16;16.13;;;6.70;;
12665;SDS011;58531;59.050;17.416;2023-10-31T03:33:43;15.90;;;8.07;;
12665;SDS011;58531;59.050;17.416;2023-10-31T03:36:10;17.93;;;6.80;;
12665;SDS011;58531;59.050;17.416;2023-10-31T03:38:37;13.83;;;7.77;;
12665;SDS011;58531;59.050;17.416;2023-10-31T03:41:03;16.57;;;7.53;;
12665;SDS011;58531;59.050;17.416;2023-10-31T03:43:30;14.67;;;6.97;;
12665;SDS011;58531;59.050;17.416;2023-10-31T03:45:57;10.90;;;6.93;;
12665;SDS011;58531;59.050;17.416;2023-10-31T03:48:26;15.83;;;7.73;;
12665;SDS011;58531;59.050;17.416;2023-10-31T03:50:53;16.17;;;7.47;;
12665;SDS011;58531;59.050;17.416;2023-10-31T03:53:20;14.97;;;7.80;;
12665;SDS011;58531;59.050;17.416;2023-10-31T03:55:47;14.83;;;7.33;;
12665;SDS011;58531;59.050;17.416;2023-10-31T03:58:14;17.83;;;7.83;;
12665;SDS011;58531;59.050;17.416;2023-10-31T04:00:41;14.00;;;7.37;;
12665;SDS011;58531;59.050;17.416;2023-10-31T04:03:07;20.47;;;7.97;;
12665;SDS011;58531;59.050;17.416;2023-10-31T04:05:36;10.77;;;7.10;;
12665;SDS011;58531;59.050;17.416;2023-10-31T04:08:03;13.07;;;7.50;;
12665;SDS011;58531;59.050;17.416;2023-10-31T04:10:30;15.37;;;7.23;;
12665;SDS011;58531;59.050;17.416;2023-10-31T04:12:57;13.13;;;7.50;;
12665;SDS011;58531;59.050;17.416;2023-10-31T04:15:24;11.90;;;7.67;;
12665;SDS011;58531;59.050;17.416;2023-10-31T04:17:51;16.13;;;7.17;;
12665;SDS011;58531;59.050;17.416;2023-10-31T04:20:18;16.43;;;7.10;;
12665;SDS011;58531;59.050;17.416;2023-10-31T04:22:46;14.90;;;8.03;;
12665;SDS011;58531;59.050;17.416;2023-10-31T04:25:13;17.87;;;8.00;;
12665;SDS011;58531;59.050;17.416;2023-10-31T04:27:40;15.43;;;7.27;;
12665;SDS011;58531;59.050;17.416;2023-10-31T04:30:07;12.17;;;7.13;;
12665;SDS011;58531;59.050;17.416;2023-10-31T04:32:34;10.27;;;6.23;;
12665;SDS011;58531;59.050;17.416;2023-10-31T04:35:01;13.50;;;6.80;;
12665;SDS011;58531;59.050;17.416;2023-10-31T04:37:28;17.23;;;9.47;;
12665;SDS011;58531;59.050;17.416;2023-10-31T04:39:56;15.27;;;7.20;;
12665;SDS011;58531;59.050;17.416;2023-10-31T04:42:23;15.13;;;6.67;;
12665;SDS011;58531;59.050;17.416;2023-10-31T04:44:49;13.27;;;6.63;;
12665;SDS011;58531;59.050;17.416;2023-10-31T04:47:16;11.07;;;6.40;;
12665;SDS011;58531;59.050;17.416;2023-10-31T04:49:43;13.63;;;6.20;;
12665;SDS011;58531;59.050;17.416;2023-10-31T04:52:10;16.53;;;8.00;;
12665;SDS011;58531;59.050;17.416;2023-10-31T04:54:37;15.77;;;7.20;;
12665;SDS011;58531;59.050;17.416;2023-10-31T04:57:05;15.67;;;8.17;;
12665;SDS011;58531;59.050;17.416;2023-10-31T04:59:32;16.77;;;7.57;;
12665;SDS011;58531;59.050;17.416;2023-10-31T05:01:59;16.60;;;8.00;;
12665;SDS011;58531;59.050;17.416;2023-10-31T05:04:26;15.13;;;7.67;;
12665;SDS011;58531;59.050;17.416;2023-10-31T05:06:54;14.13;;;7.30;;
12665;SDS011;58531;59.050;17.416;2023-10-31T05:09:21;14.37;;;7.50;;
12665;SDS011;58531;59.050;17.416;2023-10-31T05:11:48;10.73;;;6.63;;
12665;SDS011;58531;59.050;17.416;2023-10-31T05:14:16;16.93;;;8.50;;
12665;SDS011;58531;59.050;17.416;2023-10-31T05:16:43;15.07;;;7.40;;
12665;SDS011;58531;59.050;17.416;2023-10-31T05:19:10;14.20;;;7.37;;
12665;SDS011;58531;59.050;17.416;2023-10-31T05:21:37;15.73;;;7.73;;
12665;SDS011;58531;59.050;17.416;2023-10-31T05:24:04;14.93;;;8.47;;
12665;SDS011;58531;59.050;17.416;2023-10-31T05:26:32;16.03;;;7.77;;
12665;SDS011;58531;59.050;17.416;2023-10-31T05:28:59;15.80;;;7.70;;
12665;SDS011;58531;59.050;17.416;2023-10-31T05:31:27;14.77;;;7.10;;
12665;SDS011;58531;59.050;17.416;2023-10-31T05:33:54;13.73;;;7.77;;
12665;SDS011;58531;59.050;17.416;2023-10-31T05:36:21;13.10;;;7.33;;
12665;SDS011;58531;59.050;17.416;2023-10-31T05:38:50;17.03;;;8.00;;
12665;SDS011;58531;59.050;17.416;2023-10-31T05:41:16;12.80;;;7.23;;
12665;SDS011;58531;59.050;17.416;2023-10-31T05:43:43;13.63;;;7.10;;
12665;SDS011;58531;59.050;17.416;2023-10-31T05:46:10;13.93;;;7.33;;
12665;SDS011;58531;59.050;17.416;2023-10-31T05:48:41;16.97;;;7.73;;
12665;SDS011;58531;59.050;17.416;2023-10-31T05:51:13;12.37;;;7.10;;
12665;SDS011;58531;59.050;17.416;2023-10-31T05:53:40;16.30;;;7.27;;
12665;SDS011;58531;59.050;17.416;2023-10-31T05:56:08;13.07;;;6.90;;
12665;SDS011;58531;59.050;17.416;2023-10-31T05:58:36;11.10;;;6.47;;
12665;SDS011;58531;59.050;17.416;2023-10-31T06:01:03;13.23;;;6.40;;
12665;SDS011;58531;59.050;17.416;2023-10-31T06:03:30;10.70;;;6.30;;
12665;SDS011;58531;59.050;17.416;2023-10-31T06:05:59;15.97;;;6.30;;
12665;SDS011;58531;59.050;17.416;2023-10-31T06:08:26;15.60;;;5.90;;
12665;SDS011;58531;59.050;17.416;2023-10-31T06:10:54;8.37;;;6.00;;
12665;SDS011;58531;59.050;17.416;2023-10-31T06:13:21;10.30;;;5.80;;
12665;SDS011;58531;59.050;17.416;2023-10-31T06:15:48;15.03;;;6.40;;
12665;SDS011;58531;59.050;17.416;2023-10-31T06:18:15;14.00;;;6.83;;
12665;SDS011;58531;59.050;17.416;2023-10-31T06:20:42;12.57;;;6.33;;
12665;SDS011;58531;59.050;17.416;2023-10-31T06:23:10;5.73;;;3.23;;
12665;SDS011;58531;59.050;17.416;2023-10-31T06:25:37;9.17;;;3.43;;
12665;SDS011;58531;59.050;17.416;2023-10-31T06:28:04;4.13;;;2.17;;
12665;SDS011;58531;59.050;17.416;2023-10-31T06:30:31;2.53;;;1.80;;
12665;SDS011;58531;59.050;17.416;2023-10-31T06:32:58;2.27;;;1.40;;
12665;SDS011;58531;59.050;17.416;2023-10-31T06:35:25;1.30;;;1.20;;
12665;SDS011;58531;59.050;17.416;2023-10-31T06:37:54;1.93;;;1.70;;
12665;SDS011;58531;59.050;17.416;2023-10-31T06:40:23;1.83;;;1.50;;
12665;SDS011;58531;59.050;17.416;2023-10-31T06:42:50;2.47;;;1.00;;
12665;SDS011;58531;59.050;17.416;2023-10-31T06:45:17;4.03;;;2.60;;
12665;SDS011;58531;59.050;17.416;2023-10-31T06:47:44;4.83;;;1.60;;
12665;SDS011;58531;59.050;17.416;2023-10-31T06:50:11;1.70;;;1.10;;
12665;SDS011;58531;59.050;17.416;2023-10-31T06:52:38;2.43;;;1.70;;
12665;SDS011;58531;59.050;17.416;2023-10-31T06:55:05;3.00;;;2.73;;
12665;SDS011;58531;59.050;17.416;2023-10-31T06:57:33;3.37;;;1.30;;
12665;SDS011;58531;59.050;17.416;2023-10-31T07:00:00;3.03;;;0.80;;
12665;SDS011;58531;59.050;17.416;2023-10-31T07:02:28;1.10;;;0.97;;
12665;SDS011;58531;59.050;17.416;2023-10-31T07:04:55;2.13;;;0.67;;
12665;SDS011;58531;59.050;17.416;2023-10-31T07:07:22;3.23;;;0.90;;
12665;SDS011;58531;59.050;17.416;2023-10-31T07:09:48;4.93;;;2.37;;
12665;SDS011;58531;59.050;17.416;2023-10-31T07:12:15;2.23;;;0.90;;
12665;SDS011;58531;59.050;17.416;2023-10-31T07:14:43;1.30;;;0.87;;
12665;SDS011;58531;59.050;17.416;2023-10-31T07:17:10;1.93;;;0.70;;
12665;SDS011;58531;59.050;17.416;2023-10-31T07:19:37;2.30;;;1.97;;
12665;SDS011;58531;59.050;17.416;2023-10-31T07:22:04;3.97;;;2.00;;
12665;SDS011;58531;59.050;17.416;2023-10-31T07:24:31;3.13;;;2.17;;
12665;SDS011;58531;59.050;17.416;2023-10-31T07:26:58;3.03;;;1.83;;
12665;SDS011;58531;59.050;17.416;2023-10-31T07:29:24;4.50;;;1.90;;
12665;SDS011;58531;59.050;17.416;2023-10-31T07:31:53;4.73;;;1.00;;
12665;SDS011;58531;59.050;17.416;2023-10-31T07:34:20;7.23;;;3.97;;
12665;SDS011;58531;59.050;17.416;2023-10-31T07:36:46;2.63;;;2.37;;
12665;SDS011;58531;59.050;17.416;2023-10-31T07:39:13;2.87;;;1.40;;
12665;SDS011;58531;59.050;17.416;2023-10-31T07:41:40;1.93;;;1.40;;
12665;SDS011;58531;59.050;17.416;2023-10-31T07:44:07;3.97;;;1.20;;
12665;SDS011;58531;59.050;17.416;2023-10-31T07:46:34;2.70;;;1.60;;
12665;SDS011;58531;59.050;17.416;2023-10-31T07:49:02;2.13;;;1.33;;
12665;SDS011;58531;59.050;17.416;2023-10-31T07:51:29;3.17;;;1.20;;
12665;SDS011;58531;59.050;17.416;2023-10-31T07:53:56;1.93;;;1.30;;
12665;SDS011;58531;59.050;17.416;2023-10-31T07:56:25;3.07;;;1.60;;
12665;SDS011;58531;59.050;17.416;2023-10-31T07:58:52;2.30;;;1.20;;
12665;SDS011;58531;59.050;17.416;2023-10-31T08:01:20;2.90;;;1.20;;
12665;SDS011;58531;59.050;17.416;2023-10-31T08:03:47;4.03;;;1.70;;
12665;SDS011;58531;59.050;17.416;2023-10-31T08:06:15;2.33;;;1.60;;
12665;SDS011;58531;59.050;17.416;2023-10-31T08:08:42;4.03;;;1.90;;
12665;SDS011;58531;59.050;17.416;2023-10-31T08:11:09;3.27;;;2.20;;
12665;SDS011;58531;59.050;17.416;2023-10-31T08:13:36;4.60;;;2.17;;
12665;SDS011;58531;59.050;17.416;2023-10-31T08:16:03;2.67;;;1.70;;
12665;SDS011;58531;59.050;17.416;2023-10-31T08:18:31;7.37;;;2.40;;
12665;SDS011;58531;59.050;17.416;2023-10-31T08:20:58;8.37;;;2.70;;
12665;SDS011;58531;59.050;17.416;2023-10-31T08:23:28;3.23;;;2.60;;
12665;SDS011;58531;59.050;17.416;2023-10-31T08:25:55;8.30;;;2.90;;
12665;SDS011;58531;59.050;17.416;2023-10-31T08:28:22;12.63;;;3.00;;
12665;SDS011;58531;59.050;17.416;2023-10-31T08:30:49;12.67;;;2.90;;
12665;SDS011;58531;59.050;17.416;2023-10-31T08:33:16;9.27;;;3.07;;
12665;SDS011;58531;59.050;17.416;2023-10-31T08:35:43;7.20;;;3.40;;
12665;SDS011;58531;59.050;17.416;2023-10-31T08:38:10;6.50;;;3.13;;
12665;SDS011;58531;59.050;17.416;2023-10-31T08:40:38;10.80;;;2.70;;
12665;SDS011;58531;59.050;17.416;2023-10-31T08:43:05;6.43;;;2.60;;
12665;SDS011;58531;59.050;17.416;2023-10-31T08:45:32;4.23;;;2.60;;
12665;SDS011;58531;59.050;17.416;2023-10-31T08:48:00;6.57;;;2.47;;
12665;SDS011;58531;59.050;17.416;2023-10-31T08:50:26;3.80;;;2.20;;
12665;SDS011;58531;59.050;17.416;2023-10-31T08:52:53;6.73;;;2.17;;
12665;SDS011;58531;59.050;17.416;2023-10-31T08:55:20;2.00;;;1.70;;
12665;SDS011;58531;59.050;17.416;2023-10-31T08:57:48;7.37;;;1.83;;
12665;SDS011;58531;59.050;17.416;2023-10-31T09:00:17;5.50;;;1.60;;
12665;SDS011;58531;59.050;17.416;2023-10-31T09:02:44;3.83;;;2.07;;
12665;SDS011;58531;59.050;17.416;2023-10-31T09:05:11;2.93;;;1.90;;
12665;SDS011;58531;59.050;17.416;2023-10-31T09:07:38;3.13;;;1.77;;
12665;SDS011;58531;59.050;17.416;2023-10-31T09:10:06;4.33;;;2.00;;
12665;SDS011;58531;59.050;17.416;2023-10-31T09:12:34;2.20;;;1.63;;
12665;SDS011;58531;59.050;17.416;2023-10-31T09:15:02;5.30;;;1.80;;
12665;SDS011;58531;59.050;17.416;2023-10-31T09:17:29;6.33;;;1.50;;
12665;SDS011;58531;59.050;17.416;2023-10-31T09:19:56;3.27;;;1.53;;
12665;SDS011;58531;59.050;17.416;2023-10-31T09:22:24;5.00;;;1.30;;
12665;SDS011;58531;59.050;17.416;2023-10-31T09:24:51;3.13;;;1.30;;
12665;SDS011;58531;59.050;17.416;2023-10-31T09:27:17;2.20;;;1.40;;
12665;SDS011;58531;59.050;17.416;2023-10-31T09:29:44;5.97;;;1.20;;
12665;SDS011;58531;59.050;17.416;2023-10-31T09:32:13;4.97;;;1.50;;
12665;SDS011;58531;59.050;17.416;2023-10-31T09:34:40;2.83;;;1.50;;
12665;SDS011;58531;59.050;17.416;2023-10-31T09:37:07;3.63;;;1.70;;
12665;SDS011;58531;59.050;17.416;2023-10-31T09:39:34;3.97;;;2.03;;
12665;SDS011;58531;59.050;17.416;2023-10-31T09:42:01;2.73;;;1.90;;
12665;SDS011;58531;59.050;17.416;2023-10-31T09:44:28;3.23;;;1.33;;
12665;SDS011;58531;59.050;17.416;2023-10-31T09:46:55;3.27;;;1.40;;
12665;SDS011;58531;59.050;17.416;2023-10-31T09:49:24;2.40;;;1.27;;
12665;SDS011;58531;59.050;17.416;2023-10-31T09:51:51;1.53;;;1.23;;
12665;SDS011;58531;59.050;17.416;2023-10-31T09:54:18;1.60;;;1.40;;
12665;SDS011;58531;59.050;17.416;2023-10-31T09:56:46;1.60;;;1.13;;
12665;SDS011;58531;59.050;17.416;2023-10-31T09:59:13;2.43;;;1.70;;
12665;SDS011;58531;59.050;17.416;2023-10-31T10:01:41;2.90;;;1.30;;
12665;SDS011;58531;59.050;17.416;2023-10-31T10:04:07;2.60;;;1.60;;
12665;SDS011;58531;59.050;17.416;2023-10-31T10:06:38;3.07;;;1.43;;
12665;SDS011;58531;59.050;17.416;2023-10-31T10:09:06;2.30;;;1.40;;
12665;SDS011;58531;59.050;17.416;2023-10-31T10:11:33;2.70;;;1.50;;
12665;SDS011;58531;59.050;17.416;2023-10-31T10:14:00;1.30;;;1.03;;
12665;SDS011;58531;59.050;17.416;2023-10-31T10:16:28;1.63;;;1.30;;
12665;SDS011;58531;59.050;17.416;2023-10-31T10:18:56;2.77;;;1.20;;
12665;SDS011;58531;59.050;17.416;2023-10-31T10:21:23;1.30;;;1.20;;
12665;SDS011;58531;59.050;17.416;2023-10-31T10:23:52;2.83;;;1.27;;
12665;SDS011;58531;59.050;17.416;2023-10-31T10:26:19;3.33;;;1.30;;
12665;SDS011;58531;59.050;17.416;2023-10-31T10:28:50;2.40;;;1.23;;
12665;SDS011;58531;59.050;17.416;2023-10-31T10:31:18;1.53;;;1.20;;
12665;SDS011;58531;59.050;17.416;2023-10-31T10:33:45;3.73;;;1.40;;
12665;SDS011;58531;59.050;17.416;2023-10-31T10:36:12;1.97;;;1.30;;
12665;SDS011;58531;59.050;17.416;2023-10-31T10:38:41;2.57;;;1.47;;
12665;SDS011;58531;59.050;17.416;2023-10-31T10:41:13;2.67;;;1.30;;
12665;SDS011;58531;59.050;17.416;2023-10-31T10:43:46;2.40;;;1.50;;
12665;SDS011;58531;59.050;17.416;2023-10-31T10:46:16;5.90;;;1.70;;
12665;SDS011;58531;59.050;17.416;2023-10-31T10:48:47;2.33;;;1.90;;
12665;SDS011;58531;59.050;17.416;2023-10-31T10:51:21;1.93;;;1.70;;
12665;SDS011;58531;59.050;17.416;2023-10-31T10:53:51;1.97;;;1.77;;
12665;SDS011;58531;59.050;17.416;2023-10-31T10:56:28;2.87;;;1.60;;
12665;SDS011;58531;59.050;17.416;2023-10-31T10:59:00;6.50;;;1.73;;
12665;SDS011;58531;59.050;17.416;2023-10-31T11:01:31;2.23;;;1.70;;
12665;SDS011;58531;59.050;17.416;2023-10-31T11:03:58;2.27;;;1.67;;
12665;SDS011;58531;59.050;17.416;2023-10-31T11:06:25;4.60;;;2.00;;
12665;SDS011;58531;59.050;17.416;2023-10-31T11:08:53;3.63;;;1.70;;
12665;SDS011;58531;59.050;17.416;2023-10-31T11:11:22;4.13;;;1.80;;
12665;SDS011;58531;59.050;17.416;2023-10-31T11:13:50;1.53;;;1.43;;
12665;SDS011;58531;59.050;17.416;2023-10-31T11:16:24;4.07;;;1.97;;
12665;SDS011;58531;59.050;17.416;2023-10-31T11:18:55;3.10;;;1.90;;
12665;SDS011;58531;59.050;17.416;2023-10-31T11:21:22;7.77;;;2.20;;
12665;SDS011;58531;59.050;17.416;2023-10-31T11:23:56;3.63;;;1.90;;
12665;SDS011;58531;59.050;17.416;2023-10-31T11:26:25;6.40;;;1.90;;
12665;SDS011;58531;59.050;17.416;2023-10-31T11:28:53;2.10;;;1.70;;
12665;SDS011;58531;59.050;17.416;2023-10-31T11:31:30;3.47;;;1.67;;
12665;SDS011;58531;59.050;17.416;2023-10-31T11:33:57;2.87;;;1.97;;
12665;SDS011;58531;59.050;17.416;2023-10-31T11:36:26;2.93;;;1.87;;
12665;SDS011;58531;59.050;17.416;2023-10-31T11:39:09;14.60;;;2.67;;
12665;SDS011;58531;59.050;17.416;2023-10-31T11:41:38;3.43;;;2.13;;
12665;SDS011;58531;59.050;17.416;2023-10-31T11:44:06;4.17;;;2.00;;
12665;SDS011;58531;59.050;17.416;2023-10-31T11:46:33;6.47;;;2.37;;
12665;SDS011;58531;59.050;17.416;2023-10-31T11:49:00;3.40;;;1.97;;
12665;SDS011;58531;59.050;17.416;2023-10-31T11:51:30;2.30;;;1.80;;
12665;SDS011;58531;59.050;17.416;2023-10-31T11:53:57;2.87;;;1.80;;
12665;SDS011;58531;59.050;17.416;2023-10-31T11:56:25;3.23;;;2.23;;
12665;SDS011;58531;59.050;17.416;2023-10-31T11:58:56;3.30;;;1.80;;
12665;SDS011;58531;59.050;17.416;2023-10-31T12:01:25;5.23;;;2.37;;
12665;SDS011;58531;59.050;17.416;2023-10-31T12:03:52;4.23;;;3.17;;
12665;SDS011;58531;59.050;17.416;2023-10-31T12:06:18;11.17;;;4.57;;
12665;SDS011;58531;59.050;17.416;2023-10-31T12:08:47;5.57;;;3.37;;
12665;SDS011;58531;59.050;17.416;2023-10-31T12:11:15;4.57;;;2.23;;
12665;SDS011;58531;59.050;17.416;2023-10-31T12:13:51;8.77;;;4.47;;
12665;SDS011;58531;59.050;17.416;2023-10-31T12:16:22;2.00;;;1.63;;
12665;SDS011;58531;59.050;17.416;2023-10-31T12:18:55;3.27;;;1.53;;
12665;SDS011;58531;59.050;17.416;2023-10-31T12:21:39;1.90;;;1.60;;
12665;SDS011;58531;59.050;17.416;2023-10-31T12:24:08;2.50;;;1.70;;
12665;SDS011;58531;59.050;17.416;2023-10-31T12:26:36;3.00;;;1.70;;
12665;SDS011;58531;59.050;17.416;2023-10-31T12:29:07;2.33;;;2.00;;
12665;SDS011;58531;59.050;17.416;2023-10-31T12:31:41;3.00;;;1.70;;
12665;SDS011;58531;59.050;17.416;2023-10-31T12:34:10;2.37;;;1.97;;
12665;SDS011;58531;59.050;17.416;2023-10-31T12:36:37;1.77;;;1.67;;
12665;SDS011;58531;59.050;17.416;2023-10-31T12:39:06;3.00;;;1.80;;
12665;SDS011;58531;59.050;17.416;2023-10-31T12:41:36;5.03;;;2.07;;
12665;SDS011;58531;59.050;17.416;2023-10-31T12:44:04;2.47;;;1.57;;
12665;SDS011;58531;59.050;17.416;2023-10-31T12:46:33;3.40;;;1.50;;
12665;SDS011;58531;59.050;17.416;2023-10-31T12:49:01;2.53;;;1.73;;
12665;SDS011;58531;59.050;17.416;2023-10-31T12:51:28;2.37;;;1.77;;
12665;SDS011;58531;59.050;17.416;2023-10-31T12:53:55;2.10;;;1.77;;
12665;SDS011;58531;59.050;17.416;2023-10-31T12:56:35;2.63;;;1.63;;
12665;SDS011;58531;59.050;17.416;2023-10-31T12:59:05;1.93;;;1.53;;
12665;SDS011;58531;59.050;17.416;2023-10-31T13:01:34;1.67;;;1.17;;
12665;SDS011;58531;59.050;17.416;2023-10-31T13:04:03;2.93;;;1.53;;
12665;SDS011;58531;59.050;17.416;2023-10-31T13:06:30;3.00;;;1.53;;
12665;SDS011;58531;59.050;17.416;2023-10-31T13:08:58;2.03;;;1.50;;
12665;SDS011;58531;59.050;17.416;2023-10-31T13:11:28;2.60;;;1.47;;
12665;SDS011;58531;59.050;17.416;2023-10-31T13:13:56;1.90;;;1.43;;
12665;SDS011;58531;59.050;17.416;2023-10-31T13:16:23;1.83;;;1.60;;
12665;SDS011;58531;59.050;17.416;2023-10-31T13:18:52;2.10;;;1.33;;
12665;SDS011;58531;59.050;17.416;2023-10-31T13:21:20;2.43;;;1.57;;
12665;SDS011;58531;59.050;17.416;2023-10-31T13:23:47;1.60;;;1.20;;
12665;SDS011;58531;59.050;17.416;2023-10-31T13:26:14;1.70;;;1.40;;
12665;SDS011;58531;59.050;17.416;2023-10-31T13:28:41;1.63;;;1.27;;
12665;SDS011;58531;59.050;17.416;2023-10-31T13:31:08;1.47;;;1.10;;
12665;SDS011;58531;59.050;17.416;2023-10-31T13:33:36;1.90;;;1.30;;
12665;SDS011;58531;59.050;17.416;2023-10-31T13:36:03;2.33;;;1.60;;
12665;SDS011;58531;59.050;17.416;2023-10-31T13:38:32;2.00;;;1.57;;
12665;SDS011;58531;59.050;17.416;2023-10-31T13:41:01;4.93;;;1.70;;
12665;SDS011;58531;59.050;17.416;2023-10-31T13:43:27;0.83;;;0.80;;
12665;SDS011;58531;59.050;17.416;2023-10-31T13:45:55;1.47;;;1.17;;
12665;SDS011;58531;59.050;17.416;2023-10-31T13:48:21;2.73;;;1.30;;
12665;SDS011;58531;59.050;17.416;2023-10-31T13:50:48;1.27;;;1.17;;
12665;SDS011;58531;59.050;17.416;2023-10-31T13:53:15;1.30;;;1.17;;
12665;SDS011;58531;59.050;17.416;2023-10-31T13:55:44;1.50;;;1.30;;
12665;SDS011;58531;59.050;17.416;2023-10-31T13:58:11;2.00;;;1.07;;
12665;SDS011;58531;59.050;17.416;2023-10-31T14:00:38;1.20;;;1.10;;
12665;SDS011;58531;59.050;17.416;2023-10-31T14:03:05;0.93;;;0.90;;
12665;SDS011;58531;59.050;17.416;2023-10-31T14:05:31;1.30;;;1.20;;
12665;SDS011;58531;59.050;17.416;2023-10-31T14:07:58;1.20;;;1.10;;
12665;SDS011;58531;59.050;17.416;2023-10-31T14:10:26;1.30;;;1.20;;
12665;SDS011;58531;59.050;17.416;2023-10-31T14:12:54;0.83;;;0.83;;
12665;SDS011;58531;59.050;17.416;2023-10-31T14:15:21;1.00;;;0.90;;
12665;SDS011;58531;59.050;17.416;2023-10-31T14:17:48;1.40;;;1.13;;
12665;SDS011;58531;59.050;17.416;2023-10-31T14:20:15;1.20;;;1.00;;
12665;SDS011;58531;59.050;17.416;2023-10-31T14:22:46;1.30;;;1.20;;
12665;SDS011;58531;59.050;17.416;2023-10-31T14:25:13;1.10;;;1.00;;
12665;SDS011;58531;59.050;17.416;2023-10-31T14:27:40;1.90;;;1.70;;
12665;SDS011;58531;59.050;17.416;2023-10-31T14:30:10;1.83;;;1.40;;